Versailles, CT (06383)

7:33 PM EST on November 26, 2014 (GMT -0500)
KCTBALTI2 | Change Station
CLOSE
Current Station
Personal Weather Station
Location: Baltic, CT
Elevation: 187 ft
Nearby Weather Stations
Active Advisory: Winter Weather Advisory Active Notice: Public Information Statement

Elev 187 ft 41.62 °N, 72.09 °W | Updated 1 second ago

Rain
Rain
35.4 °F
Feels Like 30 °F
N
6.0
Wind Variable Wind from North
Gusts 6.0 mph

Today
High -- | Low -- °F
--% Chance of Precip.
Yesterday
High -- | Low -- °F
Precip. -- in
6:49 AM 4:20 PM
Waxing Crescent, 24% visible
Pressure 29.71 in
Visibility 8.0 miles
Clouds Overcast 1600 ft
Windchill 30 °F
Dew Point 32 °F
Humidity 88%
Rainfall 0.91 in
Snow Depth Not available.
UV 0 out of 12
Pollen .10 out of 12
Air Quality Not available.
Flu Activity Not available.
METAR KIJD 262352Z AUTO 02017G26KT 8SM -RA OVC016 02/M01 A2971 RMK AO2 PK WND 01026/2346 SLP060 P0007 60054 T00221006 10022 20011 58068

More Conditions Fewer Conditions

Pressure 29.71 in
Visibility 8.0 miles
Clouds Overcast 1600 ft
Windchill 30 °F
Dew Point 32 °F
Humidity 88%
Rainfall 0.91 in
Snow Depth Not available.
UV 0 out of 12
Pollen .10 out of 12
Air Quality Not available.
Flu Activity Not available.
METAR KIJD 262352Z AUTO 02017G26KT 8SM -RA OVC016 02/M01 A2971 RMK AO2 PK WND 01026/2346 SLP060 P0007 60054 T00221006 10022 20011 58068

More Conditions Fewer Conditions

10-Day Weather Forecast

Almanac

Astronomy

Nov. 26, 2014 Rise Set
Actual Time
Civil Twilight
Nautical Twilight
Astronomical Twilight
Moon
Length of Visible Light
Length of Day
Tomorrow will be .
, % of the Moon is Illuminated

Today's Extremes

State Highs State Lows

Community

WunderPhotos

Upload Photos

1,773,930 photos uploaded!

WunderBlogs® & News

Nearby

Air Quality

  Air Quality AQ Index Pollutant
Not available.

Snow Depth

Station Depth Elevation

Earthquake Activity

City Distance Mag. Time & Date
Minimum magnitude displayed is 2.5.

Coastal Water Temperatures

Place Temperature

Nearby Weather Stations